sensor_id;sensor_type;location;lat;lon;timestamp;pressure;altitude;pressure_sealevel;temperature;humidity
66381;BME280;53177;52.648;1.214;2023-04-20T00:01:47;102178.78;;;6.68;86.17
66381;BME280;53177;52.648;1.214;2023-04-20T00:04:15;102172.53;;;6.63;86.52
66381;BME280;53177;52.648;1.214;2023-04-20T00:06:41;102169.16;;;6.70;86.57
66381;BME280;53177;52.648;1.214;2023-04-20T00:09:08;102169.16;;;6.68;86.60
66381;BME280;53177;52.648;1.214;2023-04-20T00:11:35;102173.44;;;6.63;86.68
66381;BME280;53177;52.648;1.214;2023-04-20T00:14:00;102166.44;;;6.64;87.06
66381;BME280;53177;52.648;1.214;2023-04-20T00:16:26;102173.38;;;6.62;87.07
66381;BME280;53177;52.648;1.214;2023-04-20T00:18:51;102171.72;;;6.67;86.65
66381;BME280;53177;52.648;1.214;2023-04-20T00:21:16;102164.75;;;6.67;86.78
66381;BME280;53177;52.648;1.214;2023-04-20T00:23:46;102170.00;;;6.69;86.57
66381;BME280;53177;52.648;1.214;2023-04-20T00:26:11;102159.44;;;6.66;86.92
66381;BME280;53177;52.648;1.214;2023-04-20T00:28:37;102162.06;;;6.66;86.39
66381;BME280;53177;52.648;1.214;2023-04-20T00:31:02;102161.25;;;6.70;86.70
66381;BME280;53177;52.648;1.214;2023-04-20T00:33:27;102156.00;;;6.68;86.28
66381;BME280;53177;52.648;1.214;2023-04-20T00:35:53;102157.75;;;6.68;86.11
66381;BME280;53177;52.648;1.214;2023-04-20T00:38:18;102151.56;;;6.66;86.42
66381;BME280;53177;52.648;1.214;2023-04-20T00:40:43;102148.94;;;6.66;86.28
66381;BME280;53177;52.648;1.214;2023-04-20T00:43:13;102147.16;;;6.63;86.70
66381;BME280;53177;52.648;1.214;2023-04-20T00:45:39;102147.16;;;6.63;87.07
66381;BME280;53177;52.648;1.214;2023-04-20T00:48:05;102145.38;;;6.62;87.02
66381;BME280;53177;52.648;1.214;2023-04-20T00:50:32;102144.47;;;6.62;86.65
66381;BME280;53177;52.648;1.214;2023-04-20T00:52:58;102134.91;;;6.65;86.68
66381;BME280;53177;52.648;1.214;2023-04-20T00:55:25;102134.84;;;6.62;86.74
66381;BME280;53177;52.648;1.214;2023-04-20T00:57:51;102130.44;;;6.60;87.31
66381;BME280;53177;52.648;1.214;2023-04-20T01:00:17;102130.47;;;6.61;86.58
66381;BME280;53177;52.648;1.214;2023-04-20T01:02:44;102125.19;;;6.60;87.24
66381;BME280;53177;52.648;1.214;2023-04-20T01:05:09;102125.25;;;6.64;87.53
66381;BME280;53177;52.648;1.214;2023-04-20T01:07:35;102123.41;;;6.59;87.93
66381;BME280;53177;52.648;1.214;2023-04-20T01:10:01;102123.53;;;6.65;87.74
66381;BME280;53177;52.648;1.214;2023-04-20T01:12:26;102117.31;;;6.60;88.39
66381;BME280;53177;52.648;1.214;2023-04-20T01:14:51;102114.63;;;6.57;88.69
66381;BME280;53177;52.648;1.214;2023-04-20T01:17:17;102112.84;;;6.56;88.94
66381;BME280;53177;52.648;1.214;2023-04-20T01:19:44;102110.19;;;6.53;88.95
66381;BME280;53177;52.648;1.214;2023-04-20T01:22:16;102124.16;;;6.50;89.34
66381;BME280;53177;52.648;1.214;2023-04-20T01:24:42;102113.63;;;6.49;89.38
66381;BME280;53177;52.648;1.214;2023-04-20T01:27:08;102110.09;;;6.47;89.65
66381;BME280;53177;52.648;1.214;2023-04-20T01:29:34;102112.72;;;6.48;89.44
66381;BME280;53177;52.648;1.214;2023-04-20T01:31:59;102114.50;;;6.51;89.38
66381;BME280;53177;52.648;1.214;2023-04-20T01:34:25;102097.81;;;6.47;89.05
66381;BME280;53177;52.648;1.214;2023-04-20T01:36:51;102106.59;;;6.46;89.53
66381;BME280;53177;52.648;1.214;2023-04-20T01:39:16;102107.38;;;6.44;89.46
66381;BME280;53177;52.648;1.214;2023-04-20T01:41:42;102099.53;;;6.45;89.55
66381;BME280;53177;52.648;1.214;2023-04-20T01:44:07;102095.16;;;6.44;89.78
66381;BME280;53177;52.648;1.214;2023-04-20T01:46:36;102093.44;;;6.48;89.58
66381;BME280;53177;52.648;1.214;2023-04-20T01:49:02;102103.88;;;6.43;89.65
66381;BME280;53177;52.648;1.214;2023-04-20T01:51:27;102099.41;;;6.38;90.15
66381;BME280;53177;52.648;1.214;2023-04-20T01:53:53;102096.78;;;6.38;90.38
66381;BME280;53177;52.648;1.214;2023-04-20T01:56:19;102094.06;;;6.31;90.40
66381;BME280;53177;52.648;1.214;2023-04-20T01:58:44;102089.69;;;6.32;90.68
66381;BME280;53177;52.648;1.214;2023-04-20T02:01:09;102087.00;;;6.27;91.27
66381;BME280;53177;52.648;1.214;2023-04-20T02:03:35;102089.63;;;6.27;91.12
66381;BME280;53177;52.648;1.214;2023-04-20T02:06:00;102086.13;;;6.27;91.07
66381;BME280;53177;52.648;1.214;2023-04-20T02:08:26;102083.50;;;6.28;91.22
66381;BME280;53177;52.648;1.214;2023-04-20T02:10:51;102086.16;;;6.30;90.99
66381;BME280;53177;52.648;1.214;2023-04-20T02:13:16;102086.97;;;6.26;91.66
66381;BME280;53177;52.648;1.214;2023-04-20T02:15:42;102092.13;;;6.20;91.63
66381;BME280;53177;52.648;1.214;2023-04-20T02:18:07;102086.81;;;6.17;91.85
66381;BME280;53177;52.648;1.214;2023-04-20T02:20:34;102082.34;;;6.11;91.69
66381;BME280;53177;52.648;1.214;2023-04-20T02:22:59;102086.72;;;6.12;92.16
66381;BME280;53177;52.648;1.214;2023-04-20T02:25:25;102080.59;;;6.12;91.98
66381;BME280;53177;52.648;1.214;2023-04-20T02:27:50;102084.91;;;6.08;91.80
66381;BME280;53177;52.648;1.214;2023-04-20T02:30:16;102081.41;;;6.08;92.14
66381;BME280;53177;52.648;1.214;2023-04-20T02:32:41;102080.56;;;6.10;91.92
66381;BME280;53177;52.648;1.214;2023-04-20T02:35:08;102080.56;;;6.10;91.52
66381;BME280;53177;52.648;1.214;2023-04-20T02:37:33;102082.25;;;6.05;91.96
66381;BME280;53177;52.648;1.214;2023-04-20T02:39:59;102081.31;;;6.03;92.12
66381;BME280;53177;52.648;1.214;2023-04-20T02:42:24;102079.56;;;6.02;92.24
66381;BME280;53177;52.648;1.214;2023-04-20T02:44:49;102081.25;;;6.00;92.51
66381;BME280;53177;52.648;1.214;2023-04-20T02:47:16;102077.75;;;5.98;92.34
66381;BME280;53177;52.648;1.214;2023-04-20T02:49:42;102072.41;;;5.95;92.89
66381;BME280;53177;52.648;1.214;2023-04-20T02:52:07;102073.25;;;5.93;93.05
66381;BME280;53177;52.648;1.214;2023-04-20T02:54:33;102076.72;;;5.92;92.92
66381;BME280;53177;52.648;1.214;2023-04-20T02:56:58;102078.50;;;5.93;93.02
66381;BME280;53177;52.648;1.214;2023-04-20T02:59:24;102076.72;;;5.92;92.74
66381;BME280;53177;52.648;1.214;2023-04-20T03:01:49;102077.50;;;5.86;93.23
66381;BME280;53177;52.648;1.214;2023-04-20T03:04:14;102067.00;;;5.86;93.75
66381;BME280;53177;52.648;1.214;2023-04-20T03:06:40;102073.06;;;5.83;93.92
66381;BME280;53177;52.648;1.214;2023-04-20T03:09:06;102075.59;;;5.80;93.86
66381;BME280;53177;52.648;1.214;2023-04-20T03:11:33;102073.03;;;5.82;93.99
66381;BME280;53177;52.648;1.214;2023-04-20T03:13:58;102072.03;;;5.77;94.40
66381;BME280;53177;52.648;1.214;2023-04-20T03:16:23;102057.97;;;5.73;94.73
66381;BME280;53177;52.648;1.214;2023-04-20T03:18:49;102069.38;;;5.74;94.30
66381;BME280;53177;52.648;1.214;2023-04-20T03:21:14;102069.31;;;5.71;94.28
66381;BME280;53177;52.648;1.214;2023-04-20T03:23:40;102069.31;;;5.71;94.85
66381;BME280;53177;52.648;1.214;2023-04-20T03:26:05;102067.59;;;5.73;94.25
66381;BME280;53177;52.648;1.214;2023-04-20T03:28:31;102074.47;;;5.66;94.76
66381;BME280;53177;52.648;1.214;2023-04-20T03:30:56;102066.50;;;5.62;95.43
66381;BME280;53177;52.648;1.214;2023-04-20T03:33:21;102067.47;;;5.67;95.46
66381;BME280;53177;52.648;1.214;2023-04-20T03:35:47;102067.44;;;5.64;95.34
66381;BME280;53177;52.648;1.214;2023-04-20T03:38:12;102071.00;;;5.67;95.09
66381;BME280;53177;52.648;1.214;2023-04-20T03:40:37;102075.34;;;5.65;95.08
66381;BME280;53177;52.648;1.214;2023-04-20T03:43:03;102061.25;;;5.60;95.65
66381;BME280;53177;52.648;1.214;2023-04-20T03:45:28;102067.34;;;5.59;96.15
66381;BME280;53177;52.648;1.214;2023-04-20T03:47:54;102073.41;;;5.57;95.59
66381;BME280;53177;52.648;1.214;2023-04-20T03:50:19;102073.38;;;5.54;95.99
66381;BME280;53177;52.648;1.214;2023-04-20T03:52:45;102071.53;;;5.51;95.92
66381;BME280;53177;52.648;1.214;2023-04-20T03:55:10;102067.19;;;5.52;95.89
66381;BME280;53177;52.648;1.214;2023-04-20T03:57:37;102072.34;;;5.47;96.61
66381;BME280;53177;52.648;1.214;2023-04-20T04:00:03;102072.31;;;5.46;95.78
66381;BME280;53177;52.648;1.214;2023-04-20T04:02:30;102074.00;;;5.42;96.13
66381;BME280;53177;52.648;1.214;2023-04-20T04:04:55;102071.31;;;5.39;96.36
66381;BME280;53177;52.648;1.214;2023-04-20T04:07:21;102068.72;;;5.40;96.54
66381;BME280;53177;52.648;1.214;2023-04-20T04:09:46;102069.53;;;5.38;96.71
66381;BME280;53177;52.648;1.214;2023-04-20T04:12:12;102067.88;;;5.42;96.35
66381;BME280;53177;52.648;1.214;2023-04-20T04:14:37;102067.88;;;5.42;96.38
66381;BME280;53177;52.648;1.214;2023-04-20T04:17:03;102070.53;;;5.43;96.32
66381;BME280;53177;52.648;1.214;2023-04-20T04:19:37;102065.19;;;5.38;96.74
66381;BME280;53177;52.648;1.214;2023-04-20T04:22:05;102060.75;;;5.36;96.69
66381;BME280;53177;52.648;1.214;2023-04-20T04:24:36;102060.69;;;5.33;96.08
66381;BME280;53177;52.648;1.214;2023-04-20T04:27:05;102066.00;;;5.36;96.08
66381;BME280;53177;52.648;1.214;2023-04-20T04:29:36;102062.56;;;5.38;96.77
66381;BME280;53177;52.648;1.214;2023-04-20T04:32:05;102071.25;;;5.36;96.38
66381;BME280;53177;52.648;1.214;2023-04-20T04:34:37;102066.03;;;5.37;96.37
66381;BME280;53177;52.648;1.214;2023-04-20T04:37:06;102068.59;;;5.34;96.22
66381;BME280;53177;52.648;1.214;2023-04-20T04:39:36;102067.66;;;5.32;96.25
66381;BME280;53177;52.648;1.214;2023-04-20T04:42:10;102072.91;;;5.31;96.72
66381;BME280;53177;52.648;1.214;2023-04-20T04:44:38;102071.13;;;5.30;97.20
66381;BME280;53177;52.648;1.214;2023-04-20T04:47:04;102079.94;;;5.32;96.31
66381;BME280;53177;52.648;1.214;2023-04-20T04:49:32;102073.00;;;5.35;96.62
66381;BME280;53177;52.648;1.214;2023-04-20T04:51:59;102070.28;;;5.32;96.85
66381;BME280;53177;52.648;1.214;2023-04-20T04:54:25;102065.03;;;5.31;96.57
66381;BME280;53177;52.648;1.214;2023-04-20T04:56:50;102065.09;;;5.34;96.58
66381;BME280;53177;52.648;1.214;2023-04-20T04:59:16;102066.88;;;5.36;96.28
66381;BME280;53177;52.648;1.214;2023-04-20T05:01:41;102065.03;;;5.31;96.22
66381;BME280;53177;52.648;1.214;2023-04-20T05:04:06;102059.94;;;5.38;96.63
66381;BME280;53177;52.648;1.214;2023-04-20T05:06:32;102054.72;;;5.40;96.68
66381;BME280;53177;52.648;1.214;2023-04-20T05:08:57;102058.28;;;5.44;96.24
66381;BME280;53177;52.648;1.214;2023-04-20T05:11:23;102067.94;;;5.45;96.49
66381;BME280;53177;52.648;1.214;2023-04-20T05:13:48;102067.13;;;5.49;96.57
66381;BME280;53177;52.648;1.214;2023-04-20T05:16:14;102060.16;;;5.51;95.55
66381;BME280;53177;52.648;1.214;2023-04-20T05:18:39;102057.47;;;5.46;96.31
66381;BME280;53177;52.648;1.214;2023-04-20T05:21:05;102061.00;;;5.48;96.26
66381;BME280;53177;52.648;1.214;2023-04-20T05:23:30;102068.91;;;5.50;96.26
66381;BME280;53177;52.648;1.214;2023-04-20T05:25:55;102061.03;;;5.50;96.33
66381;BME280;53177;52.648;1.214;2023-04-20T05:28:21;102064.66;;;5.56;96.49
66381;BME280;53177;52.648;1.214;2023-04-20T05:30:46;102061.25;;;5.60;96.26
66381;BME280;53177;52.648;1.214;2023-04-20T05:33:11;102058.63;;;5.62;95.99
66381;BME280;53177;52.648;1.214;2023-04-20T05:35:37;102057.00;;;5.67;96.53
66381;BME280;53177;52.648;1.214;2023-04-20T05:38:04;102064.00;;;5.68;96.24
66381;BME280;53177;52.648;1.214;2023-04-20T05:40:31;102057.03;;;5.70;96.23
66381;BME280;53177;52.648;1.214;2023-04-20T05:42:58;102059.72;;;5.73;96.21
66381;BME280;53177;52.648;1.214;2023-04-20T05:45:24;102063.31;;;5.78;96.12
66381;BME280;53177;52.648;1.214;2023-04-20T05:47:55;102056.38;;;5.80;96.20
66381;BME280;53177;52.648;1.214;2023-04-20T05:50:23;102064.38;;;5.86;96.04
66381;BME280;53177;52.648;1.214;2023-04-20T05:52:49;102060.13;;;5.91;96.23
66381;BME280;53177;52.648;1.214;2023-04-20T05:55:15;102062.75;;;5.93;95.47
66381;BME280;53177;52.648;1.214;2023-04-20T05:57:40;102067.16;;;5.95;94.81
66381;BME280;53177;52.648;1.214;2023-04-20T06:00:12;102070.72;;;5.97;95.23
66381;BME280;53177;52.648;1.214;2023-04-20T06:02:39;102067.28;;;6.01;95.03
66381;BME280;53177;52.648;1.214;2023-04-20T06:05:05;102070.91;;;6.08;94.72
66381;BME280;53177;52.648;1.214;2023-04-20T06:07:31;102077.06;;;6.11;94.62
66381;BME280;53177;52.648;1.214;2023-04-20T06:09:56;102062.22;;;6.12;94.41
66381;BME280;53177;52.648;1.214;2023-04-20T06:12:24;102065.88;;;6.21;94.31
66381;BME280;53177;52.648;1.214;2023-04-20T06:14:50;102068.56;;;6.26;93.76
66381;BME280;53177;52.648;1.214;2023-04-20T06:17:16;102071.38;;;6.36;93.54
66381;BME280;53177;52.648;1.214;2023-04-20T06:19:41;102068.78;;;6.40;93.02
66381;BME280;53177;52.648;1.214;2023-04-20T06:22:07;102069.84;;;6.51;92.39
66381;BME280;53177;52.648;1.214;2023-04-20T06:24:33;102061.06;;;6.49;92.22
66381;BME280;53177;52.648;1.214;2023-04-20T06:26:59;102060.38;;;6.60;91.68
66381;BME280;53177;52.648;1.214;2023-04-20T06:29:25;102056.09;;;6.67;91.13
66381;BME280;53177;52.648;1.214;2023-04-20T06:31:51;102059.63;;;6.70;90.89
66381;BME280;53177;52.648;1.214;2023-04-20T06:34:16;102058.00;;;6.78;90.94
66381;BME280;53177;52.648;1.214;2023-04-20T06:36:42;102052.81;;;6.84;90.05
66381;BME280;53177;52.648;1.214;2023-04-20T06:39:08;102044.25;;;6.98;89.85
66381;BME280;53177;52.648;1.214;2023-04-20T06:41:33;102043.44;;;7.03;88.61
66381;BME280;53177;52.648;1.214;2023-04-20T06:43:59;102037.41;;;7.13;88.10
66381;BME280;53177;52.648;1.214;2023-04-20T06:46:24;102043.66;;;7.21;87.63
66381;BME280;53177;52.648;1.214;2023-04-20T06:48:50;102041.16;;;7.32;86.56
66381;BME280;53177;52.648;1.214;2023-04-20T06:51:15;102032.50;;;7.41;85.19
66381;BME280;53177;52.648;1.214;2023-04-20T06:53:40;102037.88;;;7.51;85.15
66381;BME280;53177;52.648;1.214;2023-04-20T06:56:06;102036.28;;;7.65;82.70
66381;BME280;53177;52.648;1.214;2023-04-20T06:58:32;102032.03;;;7.78;83.28
66381;BME280;53177;52.648;1.214;2023-04-20T07:00:57;102029.53;;;7.93;83.11
66381;BME280;53177;52.648;1.214;2023-04-20T07:03:22;102024.34;;;8.04;80.32
66381;BME280;53177;52.648;1.214;2023-04-20T07:05:48;102033.25;;;8.15;80.65
66381;BME280;53177;52.648;1.214;2023-04-20T07:08:13;102026.28;;;8.24;79.52
66381;BME280;53177;52.648;1.214;2023-04-20T07:10:42;102023.72;;;8.32;79.40
66381;BME280;53177;52.648;1.214;2023-04-20T07:13:07;102014.16;;;8.39;77.58
66381;BME280;53177;52.648;1.214;2023-04-20T07:15:33;102018.59;;;8.52;76.14
66381;BME280;53177;52.648;1.214;2023-04-20T07:17:58;102012.53;;;8.60;76.18
66381;BME280;53177;52.648;1.214;2023-04-20T07:20:24;102012.59;;;8.71;76.21
66381;BME280;53177;52.648;1.214;2023-04-20T07:22:50;102002.97;;;8.79;74.88
66381;BME280;53177;52.648;1.214;2023-04-20T07:25:15;102002.97;;;8.82;74.08
66381;BME280;53177;52.648;1.214;2023-04-20T07:27:42;102002.97;;;8.85;73.27
66381;BME280;53177;52.648;1.214;2023-04-20T07:30:08;101993.34;;;8.96;73.04
66381;BME280;53177;52.648;1.214;2023-04-20T07:32:35;101997.81;;;9.05;72.90
66381;BME280;53177;52.648;1.214;2023-04-20T07:35:00;101992.53;;;9.09;71.47
66381;BME280;53177;52.648;1.214;2023-04-20T07:37:26;101987.28;;;9.15;70.35
66381;BME280;53177;52.648;1.214;2023-04-20T07:39:52;101982.00;;;9.21;69.14
66381;BME280;53177;52.648;1.214;2023-04-20T07:42:18;101977.63;;;9.22;68.20
66381;BME280;53177;52.648;1.214;2023-04-20T07:44:43;101982.94;;;9.31;68.71
66381;BME280;53177;52.648;1.214;2023-04-20T07:47:09;101981.19;;;9.44;66.44
66381;BME280;53177;52.648;1.214;2023-04-20T07:49:35;101973.31;;;9.53;66.42
66381;BME280;53177;52.648;1.214;2023-04-20T07:52:01;101977.72;;;9.57;64.99
66381;BME280;53177;52.648;1.214;2023-04-20T07:54:27;101978.59;;;9.69;65.60
66381;BME280;53177;52.648;1.214;2023-04-20T07:56:52;101979.47;;;9.70;64.26
66381;BME280;53177;52.648;1.214;2023-04-20T07:59:19;101976.81;;;9.68;64.17
66381;BME280;53177;52.648;1.214;2023-04-20T08:01:45;101967.16;;;9.86;62.67
66381;BME280;53177;52.648;1.214;2023-04-20T08:04:11;101969.81;;;9.90;62.62
66381;BME280;53177;52.648;1.214;2023-04-20T08:06:36;101964.50;;;9.98;62.68
66381;BME280;53177;52.648;1.214;2023-04-20T08:09:02;101967.16;;;10.04;61.81
66381;BME280;53177;52.648;1.214;2023-04-20T08:11:28;101963.63;;;10.09;61.10
66381;BME280;53177;52.648;1.214;2023-04-20T08:13:53;101960.13;;;10.12;60.82
66381;BME280;53177;52.648;1.214;2023-04-20T08:16:18;101964.53;;;10.17;61.34
66381;BME280;53177;52.648;1.214;2023-04-20T08:18:44;101953.03;;;10.35;60.41
66381;BME280;53177;52.648;1.214;2023-04-20T08:21:10;101938.94;;;10.41;61.20
66381;BME280;53177;52.648;1.214;2023-04-20T08:23:35;101944.22;;;10.39;59.86
66381;BME280;53177;52.648;1.214;2023-04-20T08:26:02;101945.13;;;10.40;59.50
66381;BME280;53177;52.648;1.214;2023-04-20T08:28:27;101942.41;;;10.53;59.97
66381;BME280;53177;52.648;1.214;2023-04-20T08:30:52;101938.88;;;10.63;58.41
66381;BME280;53177;52.648;1.214;2023-04-20T08:33:18;101943.28;;;10.70;58.84
66381;BME280;53177;52.648;1.214;2023-04-20T08:35:44;101937.06;;;10.78;57.93
66381;BME280;53177;52.648;1.214;2023-04-20T08:38:09;101932.63;;;10.84;56.93
66381;BME280;53177;52.648;1.214;2023-04-20T08:40:42;101939.63;;;10.94;nan
66381;BME280;53177;52.648;1.214;2023-04-20T08:43:07;101930.72;;;11.13;nan
66381;BME280;53177;52.648;1.214;2023-04-20T08:45:33;101931.63;;;11.05;nan
66381;BME280;53177;52.648;1.214;2023-04-20T08:48:09;101925.38;;;11.16;nan
66381;BME280;53177;52.648;1.214;2023-04-20T08:50:36;101919.13;;;11.31;nan
66381;BME280;53177;52.648;1.214;2023-04-20T08:53:04;101929.66;;;11.42;nan
66381;BME280;53177;52.648;1.214;2023-04-20T08:55:30;101923.53;;;11.32;nan
66381;BME280;53177;52.648;1.214;2023-04-20T08:57:55;101921.63;;;11.55;nan
66381;BME280;53177;52.648;1.214;2023-04-20T09:00:21;101920.63;;;11.71;nan
66381;BME280;53177;52.648;1.214;2023-04-20T09:02:50;101920.47;;;11.93;nan
66381;BME280;53177;52.648;1.214;2023-04-20T09:05:23;101918.75;;;11.83;nan
66381;BME280;53177;52.648;1.214;2023-04-20T09:07:54;101916.28;;;11.57;nan
66381;BME280;53177;52.648;1.214;2023-04-20T09:10:22;101901.25;;;11.60;nan
66381;BME280;53177;52.648;1.214;2023-04-20T09:12:51;101910.03;;;11.65;nan
66381;BME280;53177;52.648;1.214;2023-04-20T09:15:27;101901.16;;;11.79;nan
66381;BME280;53177;52.648;1.214;2023-04-20T09:17:53;101900.16;;;11.89;nan
66381;BME280;53177;52.648;1.214;2023-04-20T09:20:33;101898.50;;;11.77;nan
66381;BME280;53177;52.648;1.214;2023-04-20T09:23:28;101904.56;;;11.93;nan
66381;BME280;53177;52.648;1.214;2023-04-20T09:25:53;101885.56;;;12.31;nan
66381;BME280;53177;52.648;1.214;2023-04-20T09:28:19;101881.16;;;12.33;nan
66381;BME280;53177;52.648;1.214;2023-04-20T09:30:46;101882.66;;;12.53;nan
66381;BME280;53177;52.648;1.214;2023-04-20T09:33:12;101883.63;;;12.46;nan
66381;BME280;53177;52.648;1.214;2023-04-20T09:35:43;101879.34;;;12.35;nan
66381;BME280;53177;52.648;1.214;2023-04-20T09:38:10;101873.25;;;12.30;nan
66381;BME280;53177;52.648;1.214;2023-04-20T09:40:36;101866.03;;;12.41;nan
66381;BME280;53177;52.648;1.214;2023-04-20T09:43:06;101865.72;;;12.65;nan
66381;BME280;53177;52.648;1.214;2023-04-20T09:45:32;101855.34;;;12.47;nan
66381;BME280;53177;52.648;1.214;2023-04-20T09:47:58;101853.47;;;12.53;nan
66381;BME280;53177;52.648;1.214;2023-04-20T09:50:24;101859.63;;;12.58;nan
66381;BME280;53177;52.648;1.214;2023-04-20T09:52:51;101864.84;;;12.64;nan
66381;BME280;53177;52.648;1.214;2023-04-20T09:55:16;101858.44;;;12.81;nan
66381;BME280;53177;52.648;1.214;2023-04-20T09:57:43;101864.97;;;12.54;nan
66381;BME280;53177;52.648;1.214;2023-04-20T10:00:09;101863.09;;;12.63;nan
66381;BME280;53177;52.648;1.214;2023-04-20T10:02:35;101861.78;;;12.95;nan
66381;BME280;53177;52.648;1.214;2023-04-20T10:05:01;101857.25;;;13.01;nan
66381;BME280;53177;52.648;1.214;2023-04-20T10:07:30;101852.09;;;12.91;nan
66381;BME280;53177;52.648;1.214;2023-04-20T10:10:05;101850.78;;;12.58;nan
66381;BME280;53177;52.648;1.214;2023-04-20T10:12:31;101846.09;;;12.77;nan
66381;BME280;53177;52.648;1.214;2023-04-20T10:14:57;101843.66;;;12.63;nan
66381;BME280;53177;52.648;1.214;2023-04-20T10:17:32;101844.06;;;12.95;nan
66381;BME280;53177;52.648;1.214;2023-04-20T10:19:57;101845.41;;;12.62;nan
66381;BME280;53177;52.648;1.214;2023-04-20T10:22:31;101843.44;;;12.77;nan
66381;BME280;53177;52.648;1.214;2023-04-20T10:25:01;101838.50;;;12.49;nan
66381;BME280;53177;52.648;1.214;2023-04-20T10:27:38;101843.13;;;12.31;nan
66381;BME280;53177;52.648;1.214;2023-04-20T10:30:10;101848.34;;;12.38;nan
66381;BME280;53177;52.648;1.214;2023-04-20T10:32:36;101842.44;;;12.85;nan
66381;BME280;53177;52.648;1.214;2023-04-20T10:35:06;101847.81;;;12.81;nan
66381;BME280;53177;52.648;1.214;2023-04-20T10:37:33;101849.06;;;12.55;nan
66381;BME280;53177;52.648;1.214;2023-04-20T10:39:59;101841.81;;;12.66;nan
66381;BME280;53177;52.648;1.214;2023-04-20T10:42:24;101841.56;;;12.85;nan
66381;BME280;53177;52.648;1.214;2023-04-20T10:44:53;101837.72;;;13.07;nan
66381;BME280;53177;52.648;1.214;2023-04-20T10:47:27;101836.78;;;13.11;nan
66381;BME280;53177;52.648;1.214;2023-04-20T10:49:53;101830.53;;;12.52;nan
66381;BME280;53177;52.648;1.214;2023-04-20T10:52:31;101833.50;;;12.25;nan
66381;BME280;53177;52.648;1.214;2023-04-20T10:54:57;101835.31;;;12.23;nan
66381;BME280;53177;52.648;1.214;2023-04-20T10:57:23;101820.44;;;12.05;nan
66381;BME280;53177;52.648;1.214;2023-04-20T10:59:48;101816.53;;;12.40;nan
66381;BME280;53177;52.648;1.214;2023-04-20T11:02:13;101823.50;;;12.45;nan
66381;BME280;53177;52.648;1.214;2023-04-20T11:04:39;101827.63;;;12.69;nan
66381;BME280;53177;52.648;1.214;2023-04-20T11:07:09;101822.38;;;12.66;nan
66381;BME280;53177;52.648;1.214;2023-04-20T11:09:37;101822.59;;;12.48;nan
66381;BME280;53177;52.648;1.214;2023-04-20T11:12:05;101813.97;;;12.34;nan
66381;BME280;53177;52.648;1.214;2023-04-20T11:14:37;101821.09;;;12.93;nan
66381;BME280;53177;52.648;1.214;2023-04-20T11:17:03;101819.13;;;13.07;nan
66381;BME280;53177;52.648;1.214;2023-04-20T11:21:55;101814.84;;;12.31;nan
66381;BME280;53177;52.648;1.214;2023-04-20T11:24:22;101809.19;;;12.58;nan
66381;BME280;53177;52.648;1.214;2023-04-20T11:26:48;101807.88;;;12.88;nan
66381;BME280;53177;52.648;1.214;2023-04-20T11:31:55;101795.25;;;12.44;nan
66381;BME280;53177;52.648;1.214;2023-04-20T11:34:21;101795.06;;;12.56;nan
66381;BME280;53177;52.648;1.214;2023-04-20T11:36:47;101785.75;;;12.89;nan
66381;BME280;53177;52.648;1.214;2023-04-20T11:39:29;101775.66;;;12.53;nan
66381;BME280;53177;52.648;1.214;2023-04-20T11:41:55;101770.69;;;12.29;nan
66381;BME280;53177;52.648;1.214;2023-04-20T11:44:23;101762.97;;;12.12;nan
66381;BME280;53177;52.648;1.214;2023-04-20T11:46:50;101762.53;;;12.42;nan
66381;BME280;53177;52.648;1.214;2023-04-20T11:49:19;101753.75;;;12.39;nan
66381;BME280;53177;52.648;1.214;2023-04-20T11:51:45;101756.34;;;12.42;nan
66381;BME280;53177;52.648;1.214;2023-04-20T11:54:12;101753.47;;;12.57;nan
66381;BME280;53177;52.648;1.214;2023-04-20T11:56:38;101760.56;;;12.58;nan
66381;BME280;53177;52.648;1.214;2023-04-20T11:59:03;101757.31;;;12.36;nan
66381;BME280;53177;52.648;1.214;2023-04-20T12:01:29;101749.16;;;12.51;nan
66381;BME280;53177;52.648;1.214;2023-04-20T12:03:55;101740.69;;;13.38;nan
66381;BME280;53177;52.648;1.214;2023-04-20T12:06:20;101739.91;;;13.33;nan
66381;BME280;53177;52.648;1.214;2023-04-20T12:08:46;101729.19;;;12.86;nan
66381;BME280;53177;52.648;1.214;2023-04-20T12:11:13;101734.63;;;12.75;nan
66381;BME280;53177;52.648;1.214;2023-04-20T12:13:38;101736.31;;;12.82;nan
66381;BME280;53177;52.648;1.214;2023-04-20T12:16:04;101736.34;;;12.79;nan
66381;BME280;53177;52.648;1.214;2023-04-20T12:18:29;101731.97;;;12.78;nan
66381;BME280;53177;52.648;1.214;2023-04-20T12:20:55;101736.47;;;12.72;nan
66381;BME280;53177;52.648;1.214;2023-04-20T12:23:20;101727.22;;;12.40;nan
66381;BME280;53177;52.648;1.214;2023-04-20T12:25:45;101727.59;;;12.74;nan
66381;BME280;53177;52.648;1.214;2023-04-20T12:28:11;101739.03;;;12.78;nan
66381;BME280;53177;52.648;1.214;2023-04-20T12:30:37;101726.41;;;12.92;nan
66381;BME280;53177;52.648;1.214;2023-04-20T12:33:02;101721.75;;;12.49;nan
66381;BME280;53177;52.648;1.214;2023-04-20T12:35:28;101721.22;;;12.86;nan
66381;BME280;53177;52.648;1.214;2023-04-20T12:37:54;101720.41;;;12.82;nan
66381;BME280;53177;52.648;1.214;2023-04-20T12:40:21;101726.91;;;13.18;nan
66381;BME280;53177;52.648;1.214;2023-04-20T12:42:47;101723.63;;;12.99;nan
66381;BME280;53177;52.648;1.214;2023-04-20T12:45:13;101715.09;;;12.21;nan
66381;BME280;53177;52.648;1.214;2023-04-20T12:47:38;101727.41;;;12.25;nan
66381;BME280;53177;52.648;1.214;2023-04-20T12:50:04;101720.34;;;12.24;nan
66381;BME280;53177;52.648;1.214;2023-04-20T12:52:31;101710.31;;;12.46;nan
66381;BME280;53177;52.648;1.214;2023-04-20T12:54:57;101721.53;;;12.64;nan
66381;BME280;53177;52.648;1.214;2023-04-20T12:57:23;101716.44;;;12.49;nan
66381;BME280;53177;52.648;1.214;2023-04-20T12:59:48;101720.63;;;12.65;nan
66381;BME280;53177;52.648;1.214;2023-04-20T13:02:14;101702.19;;;12.56;nan
66381;BME280;53177;52.648;1.214;2023-04-20T13:04:39;101704.72;;;12.04;nan